METAR LOCAUX

2022/06/30 22:30 LFST 302230Z AUTO /////KT 9999 // FEW011/// BKN056/// OVC068/// ///TCU 16/14 Q1017
2022/06/30 22:20 EDSB 302220Z AUTO 22006KT 9999 // FEW021/// OVC048/// 16/13 Q1017
2022/06/30 22:30 LFGA 302230Z AUTO 10004KT 070V130 9999 FEW006 BKN084 OVC110 16/15 Q1016
www.noaa.gov

Ne pas utiliser pour préparer ou effectuer un vol: Utilisez la documentation officielle disponible sur aviation.meteo.fr (Aéroweb)


"Le soleil du matin ne dure pas forcément toute la journée."

Animation satellite IR

Meteociel.fr

"Derrière chaque nuage se cache le ciel bleu."

Radar pluie

Infoclimat.fr

"Si tu veux l’arc-en-ciel, tu dois supporter la pluie."
Dolly Parton

Nébulosité (octas)

Meteociel.fr

"Le soleil est souvent obscurci par les nuages et la raison par les passions."
Démophile

Impacts de foudre

www.meteo60.fr

"Celui que frappe la foudre n'entend pas le tonnerre."

Vigilance météo

vigilance-meteo.fr

"Tout nuage n'enfante pas une tempête."
William Shakespeare

TAF locaux

2022/06/30 20:14 TAF AMD LFST 302006Z 3020/0118 25008KT CAVOK TEMPO 3020/0115 SHRA FEW040TCU PROB40 TEMPO 3020/3022 30015G25KT 4000 SHRA SCT040CB
2022/06/30 18:31 TAF EDSB 301700Z 3018/0118 25006KT 9999 FEW040 TEMPO 3018/3021 30020G40KT 1000 +TSRA BKN008 BKN030CB PROB40 TEMPO 3021/0101 30015G25KT 4000 TSRA BKN035CB PROB30 TEMPO 0101/0108 BKN012
www.noaa.gov

Ne pas utiliser pour préparer ou effectuer un vol: Utilisez la documentation officielle disponible sur aviation.meteo.fr (Aéroweb)


"Les jours où le ciel est gris, le soleil n'a pas disparu à tout jamais."
Arnaud Desjardins

Prévisions 7 jours


Meteoblue.com

"Quand les crapauds chantent, le beau temps s'avance !"